createdAt,value
2018-06-19T00:00:15.803Z,7.42
2018-06-19T00:02:49.801Z,6.90
2018-06-19T00:05:28.310Z,6.87
2018-06-19T00:08:02.541Z,6.33
2018-06-19T00:10:36.737Z,5.55
2018-06-19T00:13:10.546Z,5.30
2018-06-19T00:15:44.609Z,6.40
2018-06-19T00:18:22.365Z,5.70
2018-06-19T00:20:59.938Z,5.78
2018-06-19T00:23:33.645Z,6.80
2018-06-19T00:26:07.751Z,6.95
2018-06-19T00:28:44.004Z,6.62
2018-06-19T00:31:17.958Z,7.12
2018-06-19T00:33:51.940Z,6.85
2018-06-19T00:36:26.574Z,6.20
2018-06-19T00:39:00.563Z,6.80
2018-06-19T00:41:34.894Z,8.05
2018-06-19T00:44:09.880Z,7.37
2018-06-19T00:46:46.578Z,6.80
2018-06-19T00:49:20.552Z,7.10
2018-06-19T00:51:55.715Z,7.05
2018-06-19T00:54:29.927Z,6.90
2018-06-19T00:57:04.009Z,7.65
2018-06-19T00:59:38.081Z,7.62
2018-06-19T01:02:12.428Z,7.83
2018-06-19T01:04:46.315Z,7.65
2018-06-19T01:07:20.560Z,9.00
2018-06-19T01:09:54.295Z,8.38
2018-06-19T01:12:28.871Z,8.60
2018-06-19T01:15:02.936Z,8.50
2018-06-19T01:17:37.201Z,8.60
2018-06-19T01:20:11.348Z,8.75
2018-06-19T01:22:45.294Z,8.87
2018-06-19T01:25:19.343Z,9.00
2018-06-19T01:27:53.230Z,10.10
2018-06-19T01:30:27.167Z,9.05
2018-06-19T01:33:01.394Z,8.83
2018-06-19T01:35:35.232Z,9.13
2018-06-19T01:38:09.129Z,8.70
2018-06-19T01:40:43.614Z,8.35
2018-06-19T01:43:17.644Z,8.30
2018-06-19T01:45:51.311Z,9.00
2018-06-19T01:48:25.272Z,8.87
2018-06-19T01:50:59.410Z,9.37
2018-06-19T01:53:33.534Z,8.43
2018-06-19T01:56:07.368Z,8.73
2018-06-19T01:58:41.246Z,8.33
2018-06-19T02:01:15.366Z,9.00
2018-06-19T02:03:49.411Z,7.87
2018-06-19T02:06:23.169Z,9.03
2018-06-19T02:08:57.322Z,9.50
2018-06-19T02:11:31.142Z,10.33
2018-06-19T02:14:05.142Z,10.37
2018-06-19T02:16:39.031Z,9.43
2018-06-19T02:19:13.161Z,10.83
2018-06-19T02:21:47.009Z,10.07
2018-06-19T02:24:20.911Z,9.47
2018-06-19T02:26:54.886Z,9.13
2018-06-19T02:29:28.699Z,8.23
2018-06-19T02:32:02.524Z,7.90
2018-06-19T02:34:36.737Z,7.57
2018-06-19T02:37:10.734Z,7.20
2018-06-19T02:39:44.889Z,7.43
2018-06-19T02:42:19.348Z,7.47
2018-06-19T02:44:53.459Z,8.20
2018-06-19T02:47:27.277Z,7.13
2018-06-19T02:50:01.054Z,6.93
2018-06-19T02:52:35.278Z,6.43
2018-06-19T02:55:09.228Z,6.50
2018-06-19T02:57:43.302Z,6.43
2018-06-19T03:00:17.253Z,6.30
2018-06-19T03:02:51.081Z,6.10
2018-06-19T03:05:25.124Z,5.03
2018-06-19T03:07:58.981Z,5.20
2018-06-19T03:10:32.745Z,4.83
2018-06-19T03:13:06.664Z,4.90
2018-06-19T03:15:40.519Z,4.70
2018-06-19T03:18:14.480Z,4.40
2018-06-19T03:20:48.249Z,4.47
2018-06-19T03:23:22.185Z,4.23
2018-06-19T03:25:56.363Z,4.20
2018-06-19T03:28:30.421Z,3.93
2018-06-19T03:31:04.665Z,4.70
2018-06-19T03:33:39.125Z,4.23
2018-06-19T03:36:13.178Z,3.53
2018-06-19T03:38:46.940Z,4.30
2018-06-19T03:41:20.990Z,4.23
2018-06-19T03:43:55.125Z,3.93
2018-06-19T03:46:29.217Z,3.77
2018-06-19T03:49:03.768Z,3.50
2018-06-19T03:51:37.645Z,3.67
2018-06-19T03:54:12.134Z,3.53
2018-06-19T03:56:46.209Z,3.50
2018-06-19T03:59:20.251Z,3.97
2018-06-19T04:01:54.741Z,3.33
2018-06-19T04:04:29.044Z,3.20
2018-06-19T04:07:02.906Z,3.50
2018-06-19T04:09:37.214Z,2.80
2018-06-19T04:12:11.245Z,2.70
2018-06-19T04:14:49.071Z,2.93
2018-06-19T04:17:25.863Z,2.83
2018-06-19T04:19:59.849Z,3.37
2018-06-19T04:22:34.066Z,3.30
2018-06-19T04:25:07.939Z,2.80
2018-06-19T04:27:42.361Z,3.37
2018-06-19T04:30:16.273Z,2.87
2018-06-19T04:32:50.691Z,3.23
2018-06-19T04:35:24.895Z,2.93
2018-06-19T04:37:58.846Z,3.30
2018-06-19T04:40:32.815Z,2.83
2018-06-19T04:43:06.756Z,2.80
2018-06-19T04:45:40.784Z,2.63
2018-06-19T04:48:15.213Z,2.70
2018-06-19T04:50:49.151Z,2.77
2018-06-19T04:53:23.134Z,2.60
2018-06-19T04:55:57.499Z,3.00
2018-06-19T04:58:31.423Z,3.07
2018-06-19T05:01:05.399Z,2.93
2018-06-19T05:03:39.466Z,3.03
2018-06-19T05:06:13.410Z,2.80
2018-06-19T05:08:47.694Z,3.23
2018-06-19T05:11:21.590Z,3.10
2018-06-19T05:13:55.646Z,2.70
2018-06-19T05:16:29.816Z,2.50
2018-06-19T05:19:04.150Z,3.13
2018-06-19T05:21:38.238Z,3.10
2018-06-19T05:24:12.144Z,3.12
2018-06-19T05:26:46.374Z,3.10
2018-06-19T05:29:20.603Z,3.58
2018-06-19T05:31:55.054Z,3.67
2018-06-19T05:34:29.184Z,3.30
2018-06-19T05:37:03.102Z,3.10
2018-06-19T05:39:37.023Z,3.05
2018-06-19T05:42:10.976Z,3.58
2018-06-19T05:44:45.143Z,3.55
2018-06-19T05:47:20.115Z,3.20
2018-06-19T05:49:54.035Z,3.55
2018-06-19T05:52:28.124Z,3.13
2018-06-19T05:55:02.028Z,3.30
2018-06-19T05:57:36.271Z,3.30
2018-06-19T06:00:10.303Z,3.80
2018-06-19T06:02:44.488Z,3.90
2018-06-19T06:05:18.935Z,3.50
2018-06-19T06:07:52.704Z,4.22
2018-06-19T06:10:27.165Z,4.37
2018-06-19T06:13:01.436Z,4.10
2018-06-19T06:15:35.310Z,3.90
2018-06-19T06:18:09.335Z,3.50
2018-06-19T06:20:43.489Z,3.83
2018-06-19T06:23:17.664Z,4.08
2018-06-19T06:25:52.025Z,4.50
2018-06-19T06:28:25.994Z,4.10
2018-06-19T06:30:59.954Z,4.15
2018-06-19T06:33:34.760Z,4.50
2018-06-19T06:36:08.850Z,4.55
2018-06-19T06:38:43.144Z,4.33
2018-06-19T06:41:17.202Z,4.00
2018-06-19T06:43:51.609Z,4.90
2018-06-19T06:46:25.446Z,4.80
2018-06-19T06:48:59.446Z,4.05
2018-06-19T06:51:33.468Z,4.40
2018-06-19T06:54:07.881Z,4.53
2018-06-19T06:56:42.027Z,4.78
2018-06-19T06:59:16.342Z,4.00
2018-06-19T07:01:50.252Z,4.03
2018-06-19T07:04:24.631Z,4.65
2018-06-19T07:06:58.585Z,4.17
2018-06-19T07:09:32.651Z,4.42
2018-06-19T07:12:06.496Z,4.42
2018-06-19T07:14:40.559Z,4.50
2018-06-19T07:17:14.676Z,4.33
2018-06-19T07:19:48.831Z,4.30
2018-06-19T07:22:22.843Z,4.80
2018-06-19T07:24:56.924Z,4.25
2018-06-19T07:27:30.918Z,4.70
2018-06-19T07:30:04.968Z,4.30
2018-06-19T07:32:39.072Z,4.40
2018-06-19T07:35:13.620Z,4.33
2018-06-19T07:37:47.855Z,4.25
2018-06-19T07:40:21.910Z,4.35
2018-06-19T07:43:00.406Z,4.67
2018-06-19T07:45:34.661Z,4.90
2018-06-19T07:48:08.889Z,5.15
2018-06-19T07:50:43.122Z,5.20
2018-06-19T07:53:17.209Z,5.10
2018-06-19T07:55:51.150Z,5.03
2018-06-19T07:58:25.264Z,4.50
2018-06-19T08:00:59.216Z,5.72
2018-06-19T08:03:33.371Z,5.47
2018-06-19T08:06:07.154Z,5.92
2018-06-19T08:08:41.409Z,6.35
2018-06-19T08:11:15.324Z,6.60
2018-06-19T08:13:49.291Z,7.08
2018-06-19T08:16:23.307Z,8.85
2018-06-19T08:18:57.531Z,8.53
2018-06-19T08:21:31.524Z,9.38
2018-06-19T08:24:05.394Z,8.88
2018-06-19T08:26:39.299Z,9.60
2018-06-19T08:29:13.304Z,10.00
2018-06-19T08:31:47.352Z,10.20
2018-06-19T08:34:21.251Z,11.08
2018-06-19T08:36:55.279Z,11.78
2018-06-19T08:39:29.441Z,11.60
2018-06-19T08:42:03.595Z,11.30
2018-06-19T08:44:37.681Z,13.08
2018-06-19T08:47:11.749Z,12.87
2018-06-19T08:49:45.504Z,13.03
2018-06-19T08:52:19.439Z,12.60
2018-06-19T08:54:53.390Z,12.03
2018-06-19T08:57:27.206Z,13.05
2018-06-19T09:00:01.605Z,13.25
2018-06-19T09:02:35.473Z,12.73
2018-06-19T09:05:09.260Z,13.10
2018-06-19T09:07:43.917Z,13.47
2018-06-19T09:10:17.868Z,12.80
2018-06-19T09:12:51.889Z,14.70
2018-06-19T09:15:25.986Z,13.45
2018-06-19T09:18:00.666Z,14.40
2018-06-19T09:20:34.887Z,14.15
2018-06-19T09:23:09.215Z,14.63
2018-06-19T09:25:43.462Z,13.53
2018-06-19T09:28:17.624Z,14.03
2018-06-19T09:30:51.408Z,14.40
2018-06-19T09:33:26.106Z,14.38
2018-06-19T09:36:00.294Z,14.20
2018-06-19T09:38:34.365Z,14.90
2018-06-19T09:41:08.856Z,15.23
2018-06-19T09:43:42.980Z,15.88
2018-06-19T09:46:17.034Z,15.43
2018-06-19T09:48:51.211Z,16.82
2018-06-19T09:51:25.241Z,18.30
2018-06-19T09:53:59.465Z,18.12
2018-06-19T09:56:33.289Z,18.32
2018-06-19T09:59:07.972Z,19.90
2018-06-19T10:01:41.950Z,19.70
2018-06-19T10:04:16.111Z,17.95
2018-06-19T10:06:50.382Z,19.37
2018-06-19T10:09:24.329Z,19.12
2018-06-19T10:11:58.420Z,18.27
2018-06-19T10:14:32.226Z,18.27
2018-06-19T10:17:06.576Z,18.35
2018-06-19T10:19:40.632Z,18.37
2018-06-19T10:22:14.856Z,19.60
2018-06-19T10:24:48.695Z,19.80
2018-06-19T10:27:22.624Z,17.87
2018-06-19T10:29:56.731Z,18.55
2018-06-19T10:32:30.844Z,18.50
2018-06-19T10:35:05.690Z,19.35
2018-06-19T10:37:40.229Z,17.10
2018-06-19T10:40:14.658Z,17.25
2018-06-19T10:42:48.622Z,19.52
2018-06-19T10:45:22.650Z,19.75
2018-06-19T10:47:56.580Z,17.55
2018-06-19T10:50:30.540Z,18.27
2018-06-19T10:53:04.641Z,18.60
2018-06-19T10:55:38.912Z,18.25
2018-06-19T10:58:13.181Z,18.48
2018-06-19T11:00:53.618Z,18.40
2018-06-19T11:03:27.956Z,19.23
2018-06-19T11:06:02.998Z,22.07
2018-06-19T11:08:37.035Z,24.60
2018-06-19T11:11:11.055Z,22.87
2018-06-19T11:13:45.232Z,23.50
2018-06-19T11:16:19.246Z,24.92
2018-06-19T11:18:53.386Z,23.47
2018-06-19T11:21:27.340Z,23.20
2018-06-19T11:24:01.705Z,22.95
2018-06-19T11:26:35.964Z,21.12
2018-06-19T11:29:10.343Z,21.80
2018-06-19T11:31:44.380Z,20.62
2018-06-19T11:34:18.745Z,21.10
2018-06-19T11:36:52.655Z,20.97
2018-06-19T11:39:26.826Z,21.25
2018-06-19T11:42:01.141Z,20.20
2018-06-19T11:44:35.243Z,19.87
2018-06-19T11:47:09.877Z,21.02
2018-06-19T11:49:43.950Z,20.52
2018-06-19T11:52:18.369Z,20.15
2018-06-19T11:54:52.986Z,21.87
2018-06-19T11:57:27.037Z,19.00
2018-06-19T12:00:00.821Z,19.70
2018-06-19T12:02:34.965Z,20.65
2018-06-19T12:05:08.781Z,20.30
2018-06-19T12:07:44.430Z,20.10
2018-06-19T12:10:18.815Z,20.05
2018-06-19T12:12:53.191Z,19.62
2018-06-19T12:15:27.176Z,17.65
2018-06-19T12:18:01.331Z,17.75
2018-06-19T12:20:35.526Z,17.37
2018-06-19T12:23:09.399Z,16.67
2018-06-19T12:25:43.475Z,17.42
2018-06-19T12:28:17.426Z,16.97
2018-06-19T12:30:52.009Z,17.65
2018-06-19T12:33:26.146Z,18.30
2018-06-19T12:36:00.598Z,17.48
2018-06-19T12:38:34.521Z,17.07
2018-06-19T12:41:08.692Z,17.85
2018-06-19T12:43:42.864Z,18.25
2018-06-19T12:46:16.994Z,18.40
2018-06-19T12:48:51.305Z,19.60
2018-06-19T12:51:48.811Z,17.75
2018-06-19T12:55:35.767Z,18.02
2018-06-19T12:58:09.791Z,19.20
2018-06-19T13:00:43.654Z,19.40
2018-06-19T13:03:28.959Z,18.00
2018-06-19T13:06:14.261Z,18.45
2018-06-19T13:08:48.605Z,18.60
2018-06-19T13:11:22.748Z,18.23
2018-06-19T13:14:08.251Z,16.95
2018-06-19T13:16:53.657Z,16.40
2018-06-19T13:19:39.231Z,16.07
2018-06-19T13:22:13.165Z,14.85
2018-06-19T13:24:47.560Z,17.30
2018-06-19T13:27:22.094Z,16.20
2018-06-19T13:30:08.681Z,16.30
2018-06-19T13:32:42.582Z,14.50
2018-06-19T13:35:17.018Z,14.30
2018-06-19T13:37:51.141Z,13.28
2018-06-19T13:41:02.096Z,13.45
2018-06-19T13:43:47.563Z,12.43
2018-06-19T13:46:21.550Z,13.28
2018-06-19T13:48:55.829Z,14.20
2018-06-19T13:51:30.227Z,14.20
2018-06-19T13:54:04.594Z,13.53
2018-06-19T13:57:06.320Z,14.23
2018-06-19T13:59:41.061Z,14.50
2018-06-19T14:02:15.599Z,13.00
2018-06-19T14:04:49.869Z,12.47
2018-06-19T14:07:25.933Z,12.10
2018-06-19T14:10:20.181Z,12.10
2018-06-19T14:12:58.313Z,11.40
2018-06-19T14:15:41.965Z,11.40
2018-06-19T14:18:17.157Z,10.93
2018-06-19T14:20:51.310Z,10.75
2018-06-19T14:23:25.291Z,10.60
2018-06-19T14:25:59.550Z,11.18
2018-06-19T14:28:33.575Z,11.78
2018-06-19T14:31:07.742Z,10.78
2018-06-19T14:33:42.173Z,11.65
2018-06-19T14:36:16.340Z,12.37
2018-06-19T14:38:50.331Z,12.43
2018-06-19T14:41:24.531Z,13.68
2018-06-19T14:43:58.823Z,14.07
2018-06-19T14:46:33.261Z,14.28
2018-06-19T14:49:08.013Z,14.15
2018-06-19T14:51:42.292Z,13.45
2018-06-19T14:54:16.581Z,14.00
2018-06-19T14:56:50.725Z,14.18
2018-06-19T14:59:25.052Z,13.62
2018-06-19T15:02:02.233Z,14.13
2018-06-19T15:04:36.605Z,13.70
2018-06-19T15:07:10.584Z,14.20
2018-06-19T15:09:44.997Z,14.70
2018-06-19T15:12:19.205Z,14.00
2018-06-19T15:14:53.523Z,14.33
2018-06-19T15:17:27.464Z,15.08
2018-06-19T15:20:01.683Z,15.58
2018-06-19T15:22:36.564Z,14.55
2018-06-19T15:25:11.351Z,14.13
2018-06-19T15:27:45.609Z,14.35
2018-06-19T15:30:19.714Z,14.98
2018-06-19T15:32:54.226Z,15.50
2018-06-19T15:35:28.367Z,15.50
2018-06-19T15:38:02.989Z,16.37
2018-06-19T15:40:37.545Z,17.52
2018-06-19T15:43:11.940Z,17.25
2018-06-19T15:45:46.070Z,16.70
2018-06-19T15:48:20.117Z,17.45
2018-06-19T15:50:54.158Z,17.67
2018-06-19T15:53:29.923Z,16.30
2018-06-19T15:56:04.136Z,15.98
2018-06-19T15:58:38.771Z,15.85
2018-06-19T16:01:12.810Z,14.15
2018-06-19T16:03:47.063Z,14.15
2018-06-19T16:06:21.419Z,14.83
2018-06-19T16:08:55.622Z,18.35
2018-06-19T16:11:29.746Z,16.10
2018-06-19T16:14:04.297Z,17.27
2018-06-19T16:16:38.794Z,16.30
2018-06-19T16:19:12.810Z,18.27
2018-06-19T16:21:47.298Z,18.00
2018-06-19T16:24:21.541Z,18.98
2018-06-19T16:26:55.567Z,18.32
2018-06-19T16:29:30.001Z,18.30
2018-06-19T16:32:04.158Z,19.10
2018-06-19T16:34:38.374Z,19.23
2018-06-19T16:37:12.594Z,20.35
2018-06-19T16:39:46.884Z,19.32
2018-06-19T16:42:21.120Z,18.48
2018-06-19T16:44:55.172Z,16.70
2018-06-19T16:47:30.512Z,18.85
2018-06-19T16:50:04.883Z,19.70
2018-06-19T16:52:39.162Z,19.17
2018-06-19T16:55:13.346Z,19.10
2018-06-19T16:57:47.271Z,19.40
2018-06-19T17:00:21.665Z,19.00
2018-06-19T17:02:56.217Z,18.10
2018-06-19T17:05:30.654Z,17.85
2018-06-19T17:08:05.059Z,17.57
2018-06-19T17:10:39.146Z,17.60
2018-06-19T17:13:14.181Z,18.62
2018-06-19T17:15:48.758Z,17.50
2018-06-19T17:18:23.479Z,17.12
2018-06-19T17:20:57.930Z,18.23
2018-06-19T17:23:33.085Z,18.48
2018-06-19T17:26:07.502Z,18.90
2018-06-19T17:28:41.344Z,19.32
2018-06-19T17:31:15.721Z,17.48
2018-06-19T17:33:49.927Z,19.62
2018-06-19T17:36:24.304Z,18.45
2018-06-19T17:38:58.296Z,20.08
2018-06-19T17:41:32.813Z,18.80
2018-06-19T17:44:07.484Z,19.37
2018-06-19T17:46:41.925Z,19.65
2018-06-19T17:49:15.911Z,20.15
2018-06-19T17:51:50.008Z,19.20
2018-06-19T17:54:24.256Z,20.20
2018-06-19T17:56:58.669Z,18.65
2018-06-19T17:59:32.855Z,19.20
2018-06-19T18:02:07.632Z,18.35
2018-06-19T18:04:42.006Z,19.37
2018-06-19T18:07:16.184Z,18.05
2018-06-19T18:09:50.331Z,18.05
2018-06-19T18:12:24.406Z,17.75
2018-06-19T18:14:59.081Z,18.85
2018-06-19T18:17:33.427Z,19.57
2018-06-19T18:20:07.606Z,18.30
2018-06-19T18:22:41.872Z,19.15
2018-06-19T18:25:16.076Z,18.73
2018-06-19T18:27:50.452Z,18.57
2018-06-19T18:30:24.570Z,19.50
2018-06-19T18:32:58.960Z,19.82
2018-06-19T18:35:33.071Z,19.87
2018-06-19T18:38:07.194Z,19.52
2018-06-19T18:40:41.611Z,19.80
2018-06-19T18:43:16.156Z,19.17
2018-06-19T18:45:50.563Z,18.57
2018-06-19T18:48:24.610Z,17.80
2018-06-19T18:50:58.982Z,19.62
2018-06-19T18:53:33.296Z,17.75
2018-06-19T18:56:07.728Z,17.00
2018-06-19T18:58:41.925Z,19.67
2018-06-19T19:01:16.380Z,18.10
2018-06-19T19:03:50.484Z,16.70
2018-06-19T19:06:24.756Z,18.80
2018-06-19T19:08:59.411Z,17.17
2018-06-19T19:11:33.957Z,17.82
2018-06-19T19:14:08.146Z,18.23
2018-06-19T19:16:48.506Z,16.15
2018-06-19T19:19:24.542Z,17.48
2018-06-19T19:21:59.555Z,16.57
2018-06-19T19:24:34.652Z,17.60
2018-06-19T19:27:14.801Z,17.85
2018-06-19T19:29:50.465Z,18.48
2018-06-19T19:32:25.690Z,17.23
2018-06-19T19:35:00.283Z,15.85
2018-06-19T19:37:40.074Z,17.20
2018-06-19T19:40:20.187Z,17.12
2018-06-19T19:42:54.712Z,17.60
2018-06-19T19:45:29.330Z,15.98
2018-06-19T19:48:09.557Z,17.73
2018-06-19T19:50:43.969Z,17.62
2018-06-19T19:53:18.164Z,17.52
2018-06-19T19:55:58.172Z,17.52
2018-06-19T19:58:37.866Z,16.93
2018-06-19T20:01:13.191Z,17.50
2018-06-19T20:03:48.153Z,18.20
2018-06-19T20:06:23.089Z,17.70
2018-06-19T20:08:57.256Z,19.98
2018-06-19T20:11:31.465Z,19.57
2018-06-19T20:14:06.216Z,20.30
2018-06-19T20:16:40.466Z,21.00
2018-06-19T20:19:14.600Z,21.87
2018-06-19T20:21:48.694Z,22.75
2018-06-19T20:24:23.258Z,20.05
2018-06-19T20:26:57.601Z,19.35
2018-06-19T20:29:32.164Z,20.92
2018-06-19T20:32:06.716Z,19.92
2018-06-19T20:34:41.089Z,19.02
2018-06-19T20:37:15.252Z,19.50
2018-06-19T20:39:49.436Z,19.42
2018-06-19T20:42:23.885Z,18.67
2018-06-19T20:44:58.651Z,19.77
2018-06-19T20:47:32.785Z,17.85
2018-06-19T20:50:07.711Z,17.62
2018-06-19T20:52:42.315Z,18.37
2018-06-19T20:55:16.536Z,17.62
2018-06-19T20:57:50.606Z,18.23
2018-06-19T21:00:25.049Z,17.55
2018-06-19T21:02:59.656Z,18.20
2018-06-19T21:05:33.876Z,18.15
2018-06-19T21:08:08.261Z,17.48
2018-06-19T21:10:42.212Z,17.62
2018-06-19T21:13:16.474Z,17.85
2018-06-19T21:15:50.634Z,18.30
2018-06-19T21:18:24.542Z,18.07
2018-06-19T21:20:59.181Z,17.35
2018-06-19T21:23:33.254Z,18.32
2018-06-19T21:26:07.755Z,16.48
2018-06-19T21:28:41.844Z,16.82
2018-06-19T21:31:15.831Z,17.40
2018-06-19T21:33:50.065Z,16.95
2018-06-19T21:36:24.195Z,16.57
2018-06-19T21:38:58.406Z,18.35
2018-06-19T21:41:32.482Z,19.25
2018-06-19T21:44:06.734Z,18.65
2018-06-19T21:46:40.524Z,18.05
2018-06-19T21:49:14.519Z,16.62
2018-06-19T21:51:48.716Z,15.72
2018-06-19T21:54:22.658Z,16.97
2018-06-19T21:56:56.633Z,15.78
2018-06-19T21:59:30.717Z,18.15
2018-06-19T22:02:04.989Z,18.05
2018-06-19T22:04:39.027Z,17.20
2018-06-19T22:07:13.176Z,17.65
2018-06-19T22:09:47.102Z,16.67
2018-06-19T22:12:21.115Z,15.60
2018-06-19T22:14:55.297Z,16.15
2018-06-19T22:17:29.649Z,17.82
2018-06-19T22:20:03.780Z,16.25
2018-06-19T22:22:37.618Z,17.35
2018-06-19T22:25:11.505Z,16.80
2018-06-19T22:27:45.629Z,16.57
2018-06-19T22:30:19.791Z,17.67
2018-06-19T22:32:53.861Z,17.05
2018-06-19T22:35:27.889Z,17.30
2018-06-19T22:38:01.864Z,15.65
2018-06-19T22:40:35.972Z,16.20
2018-06-19T22:43:10.195Z,17.12
2018-06-19T22:45:44.161Z,17.05
2018-06-19T22:48:18.961Z,17.27
2018-06-19T22:50:53.801Z,17.57
2018-06-19T22:53:28.039Z,17.60
2018-06-19T22:56:02.033Z,17.62
2018-06-19T22:58:36.108Z,16.93
2018-06-19T23:01:10.144Z,17.50
2018-06-19T23:03:44.173Z,17.50
2018-06-19T23:06:18.455Z,16.87
2018-06-19T23:08:52.548Z,17.20
2018-06-19T23:11:26.546Z,16.93
2018-06-19T23:14:01.145Z,16.52
2018-06-19T23:16:35.156Z,17.50
2018-06-19T23:19:09.266Z,17.15
2018-06-19T23:21:43.411Z,15.53
2018-06-19T23:24:17.383Z,15.20
2018-06-19T23:26:51.553Z,17.12
2018-06-19T23:29:25.425Z,16.27
2018-06-19T23:31:59.428Z,15.90
2018-06-19T23:34:33.443Z,15.50
2018-06-19T23:37:07.395Z,16.60
2018-06-19T23:39:41.203Z,16.82
2018-06-19T23:42:15.074Z,15.35
2018-06-19T23:44:49.281Z,17.17
2018-06-19T23:47:23.104Z,17.27
2018-06-19T23:49:57.504Z,17.05
2018-06-19T23:52:31.635Z,18.30
2018-06-19T23:55:07.292Z,17.77
2018-06-19T23:57:42.038Z,17.62
